sensor_id;sensor_type;location;lat;lon;timestamp;P1;durP1;ratioP1;P2;durP2;ratioP2
82948;SDS011;72736;50.236;18.876;2024-02-14T00:02:38;29.60;;;12.50;;
82948;SDS011;72736;50.236;18.876;2024-02-14T00:07:44;31.50;;;13.20;;
82948;SDS011;72736;50.236;18.876;2024-02-14T00:12:50;32.70;;;13.80;;
82948;SDS011;72736;50.236;18.876;2024-02-14T00:17:55;29.50;;;13.30;;
82948;SDS011;72736;50.236;18.876;2024-02-14T00:23:01;32.50;;;12.80;;
82948;SDS011;72736;50.236;18.876;2024-02-14T00:28:07;28.10;;;13.00;;
82948;SDS011;72736;50.236;18.876;2024-02-14T00:33:13;33.10;;;14.00;;
82948;SDS011;72736;50.236;18.876;2024-02-14T00:38:19;34.80;;;13.20;;
82948;SDS011;72736;50.236;18.876;2024-02-14T00:43:25;29.30;;;12.80;;
82948;SDS011;72736;50.236;18.876;2024-02-14T00:48:31;39.00;;;14.10;;
82948;SDS011;72736;50.236;18.876;2024-02-14T00:58:41;29.90;;;13.40;;
82948;SDS011;72736;50.236;18.876;2024-02-14T01:03:47;32.90;;;14.10;;
82948;SDS011;72736;50.236;18.876;2024-02-14T01:08:53;37.40;;;13.80;;
82948;SDS011;72736;50.236;18.876;2024-02-14T01:13:58;35.90;;;15.30;;
82948;SDS011;72736;50.236;18.876;2024-02-14T01:19:05;39.00;;;15.40;;
82948;SDS011;72736;50.236;18.876;2024-02-14T01:24:10;39.80;;;15.80;;
82948;SDS011;72736;50.236;18.876;2024-02-14T01:29:16;46.90;;;16.80;;
82948;SDS011;72736;50.236;18.876;2024-02-14T01:34:22;41.10;;;16.10;;
82948;SDS011;72736;50.236;18.876;2024-02-14T01:39:28;41.00;;;16.70;;
82948;SDS011;72736;50.236;18.876;2024-02-14T01:44:34;35.20;;;14.90;;
82948;SDS011;72736;50.236;18.876;2024-02-14T01:49:40;39.30;;;15.80;;
82948;SDS011;72736;50.236;18.876;2024-02-14T01:54:47;38.00;;;14.50;;
82948;SDS011;72736;50.236;18.876;2024-02-14T01:59:55;41.20;;;15.90;;
82948;SDS011;72736;50.236;18.876;2024-02-14T02:10:10;41.50;;;15.10;;
82948;SDS011;72736;50.236;18.876;2024-02-14T02:15:16;36.20;;;16.00;;
82948;SDS011;72736;50.236;18.876;2024-02-14T02:20:22;37.90;;;16.40;;
82948;SDS011;72736;50.236;18.876;2024-02-14T02:25:31;51.50;;;19.10;;
82948;SDS011;72736;50.236;18.876;2024-02-14T02:30:37;44.00;;;18.30;;
82948;SDS011;72736;50.236;18.876;2024-02-14T02:35:42;43.50;;;17.00;;
82948;SDS011;72736;50.236;18.876;2024-02-14T02:40:48;40.90;;;17.00;;
82948;SDS011;72736;50.236;18.876;2024-02-14T02:45:54;38.70;;;16.60;;
82948;SDS011;72736;50.236;18.876;2024-02-14T02:51:00;35.60;;;15.90;;
82948;SDS011;72736;50.236;18.876;2024-02-14T02:56:07;39.10;;;16.50;;
82948;SDS011;72736;50.236;18.876;2024-02-14T03:01:14;39.70;;;16.60;;
82948;SDS011;72736;50.236;18.876;2024-02-14T03:06:20;39.20;;;17.30;;
82948;SDS011;72736;50.236;18.876;2024-02-14T03:11:27;38.90;;;17.30;;
82948;SDS011;72736;50.236;18.876;2024-02-14T03:16:33;43.80;;;17.50;;
82948;SDS011;72736;50.236;18.876;2024-02-14T03:21:40;38.20;;;16.00;;
82948;SDS011;72736;50.236;18.876;2024-02-14T03:26:50;39.70;;;16.90;;
82948;SDS011;72736;50.236;18.876;2024-02-14T03:31:56;47.00;;;18.40;;
82948;SDS011;72736;50.236;18.876;2024-02-14T03:37:08;52.90;;;23.30;;
82948;SDS011;72736;50.236;18.876;2024-02-14T03:42:15;55.00;;;21.40;;
82948;SDS011;72736;50.236;18.876;2024-02-14T03:52:26;41.30;;;17.80;;
82948;SDS011;72736;50.236;18.876;2024-02-14T03:57:33;45.40;;;19.20;;
82948;SDS011;72736;50.236;18.876;2024-02-14T04:02:42;43.20;;;19.60;;
82948;SDS011;72736;50.236;18.876;2024-02-14T04:07:48;47.30;;;20.20;;
82948;SDS011;72736;50.236;18.876;2024-02-14T04:17:59;57.20;;;20.10;;
82948;SDS011;72736;50.236;18.876;2024-02-14T04:23:09;57.60;;;22.50;;
82948;SDS011;72736;50.236;18.876;2024-02-14T04:28:15;50.20;;;21.20;;
82948;SDS011;72736;50.236;18.876;2024-02-14T04:33:21;47.40;;;20.20;;
82948;SDS011;72736;50.236;18.876;2024-02-14T04:38:28;52.50;;;20.40;;
82948;SDS011;72736;50.236;18.876;2024-02-14T04:43:34;51.80;;;20.30;;
82948;SDS011;72736;50.236;18.876;2024-02-14T04:48:40;50.00;;;19.80;;
82948;SDS011;72736;50.236;18.876;2024-02-14T04:53:46;50.60;;;20.10;;
82948;SDS011;72736;50.236;18.876;2024-02-14T04:58:51;52.00;;;20.40;;
82948;SDS011;72736;50.236;18.876;2024-02-14T05:03:57;61.10;;;20.70;;
82948;SDS011;72736;50.236;18.876;2024-02-14T05:09:03;45.90;;;18.60;;
82948;SDS011;72736;50.236;18.876;2024-02-14T05:14:09;49.30;;;20.10;;
82948;SDS011;72736;50.236;18.876;2024-02-14T05:19:15;51.10;;;20.70;;
82948;SDS011;72736;50.236;18.876;2024-02-14T05:24:21;44.70;;;18.60;;
82948;SDS011;72736;50.236;18.876;2024-02-14T05:29:30;50.00;;;19.60;;
82948;SDS011;72736;50.236;18.876;2024-02-14T05:34:38;53.40;;;22.30;;
82948;SDS011;72736;50.236;18.876;2024-02-14T05:39:44;65.60;;;25.50;;
82948;SDS011;72736;50.236;18.876;2024-02-14T05:44:50;79.30;;;34.20;;
82948;SDS011;72736;50.236;18.876;2024-02-14T05:49:56;133.70;;;51.40;;
82948;SDS011;72736;50.236;18.876;2024-02-14T05:55:02;102.60;;;40.40;;
82948;SDS011;72736;50.236;18.876;2024-02-14T06:00:11;78.50;;;27.90;;
82948;SDS011;72736;50.236;18.876;2024-02-14T06:05:20;71.50;;;26.80;;
82948;SDS011;72736;50.236;18.876;2024-02-14T06:10:26;80.60;;;28.00;;
82948;SDS011;72736;50.236;18.876;2024-02-14T06:15:31;77.80;;;28.20;;
82948;SDS011;72736;50.236;18.876;2024-02-14T06:20:37;78.00;;;27.40;;
82948;SDS011;72736;50.236;18.876;2024-02-14T06:25:43;67.10;;;24.80;;
82948;SDS011;72736;50.236;18.876;2024-02-14T06:30:49;55.70;;;24.20;;
82948;SDS011;72736;50.236;18.876;2024-02-14T06:35:54;48.20;;;21.10;;
82948;SDS011;72736;50.236;18.876;2024-02-14T06:41:00;52.70;;;22.00;;
82948;SDS011;72736;50.236;18.876;2024-02-14T06:46:06;56.00;;;22.10;;
82948;SDS011;72736;50.236;18.876;2024-02-14T06:51:12;58.50;;;23.80;;
82948;SDS011;72736;50.236;18.876;2024-02-14T06:56:18;71.80;;;27.60;;
82948;SDS011;72736;50.236;18.876;2024-02-14T07:01:24;88.50;;;32.40;;
82948;SDS011;72736;50.236;18.876;2024-02-14T07:06:31;64.50;;;26.00;;
82948;SDS011;72736;50.236;18.876;2024-02-14T07:11:38;79.90;;;30.20;;
82948;SDS011;72736;50.236;18.876;2024-02-14T07:16:44;77.80;;;30.00;;
82948;SDS011;72736;50.236;18.876;2024-02-14T07:21:49;75.60;;;29.80;;
82948;SDS011;72736;50.236;18.876;2024-02-14T07:26:55;92.20;;;34.70;;
82948;SDS011;72736;50.236;18.876;2024-02-14T07:32:02;74.40;;;31.30;;
82948;SDS011;72736;50.236;18.876;2024-02-14T07:37:09;75.70;;;31.00;;
82948;SDS011;72736;50.236;18.876;2024-02-14T07:42:14;59.00;;;25.60;;
82948;SDS011;72736;50.236;18.876;2024-02-14T07:47:21;87.40;;;34.60;;
82948;SDS011;72736;50.236;18.876;2024-02-14T07:52:26;71.40;;;32.50;;
82948;SDS011;72736;50.236;18.876;2024-02-14T07:57:32;74.60;;;33.20;;
82948;SDS011;72736;50.236;18.876;2024-02-14T08:02:38;57.10;;;26.70;;
82948;SDS011;72736;50.236;18.876;2024-02-14T08:07:44;61.10;;;27.40;;
82948;SDS011;72736;50.236;18.876;2024-02-14T08:12:50;58.60;;;26.90;;
82948;SDS011;72736;50.236;18.876;2024-02-14T08:17:55;52.00;;;22.80;;
82948;SDS011;72736;50.236;18.876;2024-02-14T08:23:11;49.30;;;22.30;;
82948;SDS011;72736;50.236;18.876;2024-02-14T08:28:16;54.30;;;23.10;;
82948;SDS011;72736;50.236;18.876;2024-02-14T08:33:25;39.60;;;18.40;;
82948;SDS011;72736;50.236;18.876;2024-02-14T08:38:33;30.00;;;15.00;;
82948;SDS011;72736;50.236;18.876;2024-02-14T08:43:39;23.40;;;11.60;;
82948;SDS011;72736;50.236;18.876;2024-02-14T08:48:49;22.60;;;10.60;;
82948;SDS011;72736;50.236;18.876;2024-02-14T08:53:55;20.90;;;9.30;;
82948;SDS011;72736;50.236;18.876;2024-02-14T08:59:02;17.40;;;8.10;;
82948;SDS011;72736;50.236;18.876;2024-02-14T09:04:09;15.70;;;7.40;;
82948;SDS011;72736;50.236;18.876;2024-02-14T09:09:15;17.70;;;9.00;;
82948;SDS011;72736;50.236;18.876;2024-02-14T09:14:22;17.20;;;7.50;;
82948;SDS011;72736;50.236;18.876;2024-02-14T09:19:29;14.10;;;7.80;;
82948;SDS011;72736;50.236;18.876;2024-02-14T09:24:35;15.20;;;7.40;;
82948;SDS011;72736;50.236;18.876;2024-02-14T09:29:40;13.70;;;7.30;;
82948;SDS011;72736;50.236;18.876;2024-02-14T09:34:49;16.30;;;8.00;;
82948;SDS011;72736;50.236;18.876;2024-02-14T09:39:55;13.60;;;6.50;;
82948;SDS011;72736;50.236;18.876;2024-02-14T09:45:02;13.20;;;6.80;;
82948;SDS011;72736;50.236;18.876;2024-02-14T09:50:14;16.70;;;7.60;;
82948;SDS011;72736;50.236;18.876;2024-02-14T09:55:20;15.30;;;7.10;;
82948;SDS011;72736;50.236;18.876;2024-02-14T10:00:30;14.50;;;7.00;;
82948;SDS011;72736;50.236;18.876;2024-02-14T10:05:38;18.10;;;8.20;;
82948;SDS011;72736;50.236;18.876;2024-02-14T10:10:44;14.40;;;6.90;;
82948;SDS011;72736;50.236;18.876;2024-02-14T10:15:54;13.00;;;6.10;;
82948;SDS011;72736;50.236;18.876;2024-02-14T10:21:01;15.00;;;6.80;;
82948;SDS011;72736;50.236;18.876;2024-02-14T10:26:08;12.20;;;5.10;;
82948;SDS011;72736;50.236;18.876;2024-02-14T10:31:14;10.60;;;5.40;;
82948;SDS011;72736;50.236;18.876;2024-02-14T10:36:19;9.40;;;4.50;;
82948;SDS011;72736;50.236;18.876;2024-02-14T10:41:26;15.30;;;5.20;;
82948;SDS011;72736;50.236;18.876;2024-02-14T10:46:38;8.20;;;4.60;;
82948;SDS011;72736;50.236;18.876;2024-02-14T10:51:47;8.60;;;3.90;;
82948;SDS011;72736;50.236;18.876;2024-02-14T10:56:59;11.00;;;4.90;;
82948;SDS011;72736;50.236;18.876;2024-02-14T11:02:15;12.00;;;4.90;;
82948;SDS011;72736;50.236;18.876;2024-02-14T11:07:27;11.00;;;4.70;;
82948;SDS011;72736;50.236;18.876;2024-02-14T11:12:33;10.60;;;4.40;;
82948;SDS011;72736;50.236;18.876;2024-02-14T11:17:42;8.70;;;3.80;;
82948;SDS011;72736;50.236;18.876;2024-02-14T11:22:52;8.50;;;4.20;;
82948;SDS011;72736;50.236;18.876;2024-02-14T11:27:59;8.50;;;3.80;;
82948;SDS011;72736;50.236;18.876;2024-02-14T11:33:16;9.20;;;4.60;;
82948;SDS011;72736;50.236;18.876;2024-02-14T11:38:25;9.00;;;4.60;;
82948;SDS011;72736;50.236;18.876;2024-02-14T11:43:34;8.30;;;3.60;;
82948;SDS011;72736;50.236;18.876;2024-02-14T11:48:44;7.30;;;3.80;;
82948;SDS011;72736;50.236;18.876;2024-02-14T11:53:51;7.90;;;3.50;;
82948;SDS011;72736;50.236;18.876;2024-02-14T11:58:57;6.10;;;3.30;;
82948;SDS011;72736;50.236;18.876;2024-02-14T12:04:04;8.00;;;3.70;;
82948;SDS011;72736;50.236;18.876;2024-02-14T12:09:12;7.50;;;3.70;;
82948;SDS011;72736;50.236;18.876;2024-02-14T12:14:18;6.80;;;4.40;;
82948;SDS011;72736;50.236;18.876;2024-02-14T12:19:28;7.40;;;3.40;;
82948;SDS011;72736;50.236;18.876;2024-02-14T12:24:35;9.40;;;3.70;;
82948;SDS011;72736;50.236;18.876;2024-02-14T12:29:41;8.10;;;4.00;;
82948;SDS011;72736;50.236;18.876;2024-02-14T12:34:49;8.80;;;4.40;;
82948;SDS011;72736;50.236;18.876;2024-02-14T12:39:54;6.00;;;3.80;;
82948;SDS011;72736;50.236;18.876;2024-02-14T12:45:01;7.20;;;3.20;;
82948;SDS011;72736;50.236;18.876;2024-02-14T12:50:08;7.80;;;2.90;;
82948;SDS011;72736;50.236;18.876;2024-02-14T12:55:14;6.90;;;3.60;;
82948;SDS011;72736;50.236;18.876;2024-02-14T13:00:21;6.90;;;3.70;;
82948;SDS011;72736;50.236;18.876;2024-02-14T13:05:27;7.30;;;3.60;;
82948;SDS011;72736;50.236;18.876;2024-02-14T13:10:33;11.10;;;4.10;;
82948;SDS011;72736;50.236;18.876;2024-02-14T13:15:38;9.00;;;3.70;;
82948;SDS011;72736;50.236;18.876;2024-02-14T13:20:45;9.10;;;3.80;;
82948;SDS011;72736;50.236;18.876;2024-02-14T13:25:56;9.60;;;4.20;;
82948;SDS011;72736;50.236;18.876;2024-02-14T13:31:02;8.10;;;3.60;;
82948;SDS011;72736;50.236;18.876;2024-02-14T13:36:08;8.60;;;3.90;;
82948;SDS011;72736;50.236;18.876;2024-02-14T13:41:14;6.90;;;3.00;;
82948;SDS011;72736;50.236;18.876;2024-02-14T13:46:19;6.80;;;3.00;;
82948;SDS011;72736;50.236;18.876;2024-02-14T13:51:28;12.00;;;3.80;;
82948;SDS011;72736;50.236;18.876;2024-02-14T13:56:35;8.60;;;3.40;;
82948;SDS011;72736;50.236;18.876;2024-02-14T14:01:41;10.10;;;4.10;;
82948;SDS011;72736;50.236;18.876;2024-02-14T14:06:47;8.50;;;3.30;;
82948;SDS011;72736;50.236;18.876;2024-02-14T14:22:01;7.90;;;4.00;;
82948;SDS011;72736;50.236;18.876;2024-02-14T14:27:07;8.00;;;3.90;;
82948;SDS011;72736;50.236;18.876;2024-02-14T14:32:16;9.20;;;3.80;;
82948;SDS011;72736;50.236;18.876;2024-02-14T14:37:23;7.90;;;3.80;;
82948;SDS011;72736;50.236;18.876;2024-02-14T14:42:29;7.70;;;3.50;;
82948;SDS011;72736;50.236;18.876;2024-02-14T14:52:41;10.90;;;4.60;;
82948;SDS011;72736;50.236;18.876;2024-02-14T14:57:48;7.70;;;4.00;;
82948;SDS011;72736;50.236;18.876;2024-02-14T15:02:55;9.10;;;3.90;;
82948;SDS011;72736;50.236;18.876;2024-02-14T15:08:00;8.80;;;4.60;;
82948;SDS011;72736;50.236;18.876;2024-02-14T15:13:07;11.20;;;4.80;;
82948;SDS011;72736;50.236;18.876;2024-02-14T15:18:17;9.30;;;4.30;;
82948;SDS011;72736;50.236;18.876;2024-02-14T15:23:23;10.90;;;4.80;;
82948;SDS011;72736;50.236;18.876;2024-02-14T15:28:29;9.00;;;4.30;;
82948;SDS011;72736;50.236;18.876;2024-02-14T15:33:37;9.80;;;4.20;;
82948;SDS011;72736;50.236;18.876;2024-02-14T15:38:43;8.90;;;4.20;;
82948;SDS011;72736;50.236;18.876;2024-02-14T15:43:49;9.70;;;4.60;;
82948;SDS011;72736;50.236;18.876;2024-02-14T15:48:55;11.10;;;4.10;;
82948;SDS011;72736;50.236;18.876;2024-02-14T15:54:00;8.70;;;4.00;;
82948;SDS011;72736;50.236;18.876;2024-02-14T15:59:07;12.70;;;4.10;;
82948;SDS011;72736;50.236;18.876;2024-02-14T16:04:13;8.60;;;3.80;;
82948;SDS011;72736;50.236;18.876;2024-02-14T16:09:19;8.80;;;4.00;;
82948;SDS011;72736;50.236;18.876;2024-02-14T16:14:25;6.70;;;3.40;;
82948;SDS011;72736;50.236;18.876;2024-02-14T16:19:34;10.20;;;4.10;;
82948;SDS011;72736;50.236;18.876;2024-02-14T16:24:39;9.40;;;3.80;;
82948;SDS011;72736;50.236;18.876;2024-02-14T16:29:45;7.30;;;2.90;;
82948;SDS011;72736;50.236;18.876;2024-02-14T16:34:51;7.20;;;3.30;;
82948;SDS011;72736;50.236;18.876;2024-02-14T16:39:57;7.60;;;3.80;;
82948;SDS011;72736;50.236;18.876;2024-02-14T16:45:04;9.50;;;3.90;;
82948;SDS011;72736;50.236;18.876;2024-02-14T16:50:11;7.90;;;3.60;;
82948;SDS011;72736;50.236;18.876;2024-02-14T16:55:16;6.80;;;3.10;;
82948;SDS011;72736;50.236;18.876;2024-02-14T17:00:22;8.20;;;3.30;;
82948;SDS011;72736;50.236;18.876;2024-02-14T17:05:28;9.60;;;4.40;;
82948;SDS011;72736;50.236;18.876;2024-02-14T17:10:34;11.10;;;4.70;;
82948;SDS011;72736;50.236;18.876;2024-02-14T17:15:41;14.10;;;5.60;;
82948;SDS011;72736;50.236;18.876;2024-02-14T17:20:47;10.20;;;4.40;;
82948;SDS011;72736;50.236;18.876;2024-02-14T17:25:53;11.60;;;4.90;;
82948;SDS011;72736;50.236;18.876;2024-02-14T17:31:00;10.40;;;4.80;;
82948;SDS011;72736;50.236;18.876;2024-02-14T17:36:06;11.20;;;5.10;;
82948;SDS011;72736;50.236;18.876;2024-02-14T17:41:12;15.00;;;6.80;;
82948;SDS011;72736;50.236;18.876;2024-02-14T17:46:18;17.00;;;7.00;;
82948;SDS011;72736;50.236;18.876;2024-02-14T17:51:25;13.70;;;5.90;;
82948;SDS011;72736;50.236;18.876;2024-02-14T17:56:31;13.00;;;5.80;;
82948;SDS011;72736;50.236;18.876;2024-02-14T18:01:36;13.60;;;6.30;;
82948;SDS011;72736;50.236;18.876;2024-02-14T18:06:42;14.50;;;6.80;;
82948;SDS011;72736;50.236;18.876;2024-02-14T18:16:52;17.20;;;6.50;;
82948;SDS011;72736;50.236;18.876;2024-02-14T18:21:58;13.70;;;6.50;;
82948;SDS011;72736;50.236;18.876;2024-02-14T18:27:04;12.70;;;6.10;;
82948;SDS011;72736;50.236;18.876;2024-02-14T18:32:10;16.50;;;7.40;;
82948;SDS011;72736;50.236;18.876;2024-02-14T18:37:16;19.70;;;6.90;;
82948;SDS011;72736;50.236;18.876;2024-02-14T18:42:22;17.90;;;7.80;;
82948;SDS011;72736;50.236;18.876;2024-02-14T18:47:27;20.70;;;8.60;;
82948;SDS011;72736;50.236;18.876;2024-02-14T18:52:33;19.40;;;8.10;;
82948;SDS011;72736;50.236;18.876;2024-02-14T18:57:39;20.70;;;8.50;;
82948;SDS011;72736;50.236;18.876;2024-02-14T19:02:45;21.00;;;8.60;;
82948;SDS011;72736;50.236;18.876;2024-02-14T19:07:51;25.10;;;8.10;;
82948;SDS011;72736;50.236;18.876;2024-02-14T19:12:56;16.20;;;7.10;;
82948;SDS011;72736;50.236;18.876;2024-02-14T19:18:03;16.60;;;6.40;;
82948;SDS011;72736;50.236;18.876;2024-02-14T19:23:09;16.50;;;7.00;;
82948;SDS011;72736;50.236;18.876;2024-02-14T19:28:15;19.20;;;7.60;;
82948;SDS011;72736;50.236;18.876;2024-02-14T19:33:20;14.50;;;7.20;;
82948;SDS011;72736;50.236;18.876;2024-02-14T19:38:26;17.90;;;8.00;;
82948;SDS011;72736;50.236;18.876;2024-02-14T19:43:32;20.30;;;9.10;;
82948;SDS011;72736;50.236;18.876;2024-02-14T19:48:42;19.40;;;8.90;;
82948;SDS011;72736;50.236;18.876;2024-02-14T19:53:50;18.90;;;8.00;;
82948;SDS011;72736;50.236;18.876;2024-02-14T19:58:56;18.20;;;8.40;;
82948;SDS011;72736;50.236;18.876;2024-02-14T20:04:02;22.80;;;9.60;;
82948;SDS011;72736;50.236;18.876;2024-02-14T20:09:10;19.90;;;8.20;;
82948;SDS011;72736;50.236;18.876;2024-02-14T20:14:17;22.10;;;9.10;;
82948;SDS011;72736;50.236;18.876;2024-02-14T20:19:24;19.20;;;8.40;;
82948;SDS011;72736;50.236;18.876;2024-02-14T20:24:30;18.50;;;8.10;;
82948;SDS011;72736;50.236;18.876;2024-02-14T20:34:40;17.70;;;7.30;;
82948;SDS011;72736;50.236;18.876;2024-02-14T20:39:47;17.80;;;8.40;;
82948;SDS011;72736;50.236;18.876;2024-02-14T20:44:54;18.10;;;8.80;;
82948;SDS011;72736;50.236;18.876;2024-02-14T20:50:00;21.90;;;8.00;;
82948;SDS011;72736;50.236;18.876;2024-02-14T20:55:08;18.70;;;9.30;;
82948;SDS011;72736;50.236;18.876;2024-02-14T21:00:14;17.10;;;8.60;;
82948;SDS011;72736;50.236;18.876;2024-02-14T21:05:21;21.90;;;9.00;;
82948;SDS011;72736;50.236;18.876;2024-02-14T21:10:28;24.50;;;9.90;;
82948;SDS011;72736;50.236;18.876;2024-02-14T21:15:35;22.90;;;9.60;;
82948;SDS011;72736;50.236;18.876;2024-02-14T21:20:41;21.90;;;9.80;;
82948;SDS011;72736;50.236;18.876;2024-02-14T21:25:47;20.10;;;9.20;;
82948;SDS011;72736;50.236;18.876;2024-02-14T21:30:52;20.30;;;9.70;;
82948;SDS011;72736;50.236;18.876;2024-02-14T21:35:58;22.40;;;10.40;;
82948;SDS011;72736;50.236;18.876;2024-02-14T21:41:04;22.90;;;10.40;;
82948;SDS011;72736;50.236;18.876;2024-02-14T21:46:10;23.70;;;10.60;;
82948;SDS011;72736;50.236;18.876;2024-02-14T21:51:17;20.80;;;9.80;;
82948;SDS011;72736;50.236;18.876;2024-02-14T21:56:23;19.50;;;9.70;;
82948;SDS011;72736;50.236;18.876;2024-02-14T22:01:29;18.70;;;9.50;;
82948;SDS011;72736;50.236;18.876;2024-02-14T22:06:35;23.70;;;10.50;;
82948;SDS011;72736;50.236;18.876;2024-02-14T22:11:41;22.40;;;11.10;;
82948;SDS011;72736;50.236;18.876;2024-02-14T22:16:46;25.50;;;11.00;;
82948;SDS011;72736;50.236;18.876;2024-02-14T22:21:52;22.10;;;10.40;;
82948;SDS011;72736;50.236;18.876;2024-02-14T22:26:58;24.90;;;10.50;;
82948;SDS011;72736;50.236;18.876;2024-02-14T22:32:06;21.90;;;11.20;;
82948;SDS011;72736;50.236;18.876;2024-02-14T22:37:12;21.30;;;10.40;;
82948;SDS011;72736;50.236;18.876;2024-02-14T22:42:18;30.20;;;12.70;;
82948;SDS011;72736;50.236;18.876;2024-02-14T22:47:24;27.10;;;11.10;;
82948;SDS011;72736;50.236;18.876;2024-02-14T22:52:33;26.10;;;11.70;;
82948;SDS011;72736;50.236;18.876;2024-02-14T22:57:39;26.40;;;11.00;;
82948;SDS011;72736;50.236;18.876;2024-02-14T23:02:45;21.50;;;10.10;;
82948;SDS011;72736;50.236;18.876;2024-02-14T23:07:53;22.40;;;10.90;;
82948;SDS011;72736;50.236;18.876;2024-02-14T23:13:00;25.20;;;9.50;;
82948;SDS011;72736;50.236;18.876;2024-02-14T23:18:08;21.10;;;9.60;;
82948;SDS011;72736;50.236;18.876;2024-02-14T23:23:14;23.80;;;9.40;;
82948;SDS011;72736;50.236;18.876;2024-02-14T23:28:21;21.00;;;9.20;;
82948;SDS011;72736;50.236;18.876;2024-02-14T23:33:27;17.70;;;8.40;;
82948;SDS011;72736;50.236;18.876;2024-02-14T23:43:39;16.80;;;8.60;;
82948;SDS011;72736;50.236;18.876;2024-02-14T23:48:46;18.20;;;8.40;;
82948;SDS011;72736;50.236;18.876;2024-02-14T23:53:53;19.20;;;8.60;;
82948;SDS011;72736;50.236;18.876;2024-02-14T23:59:00;18.80;;;8.60;;
